sensor_id;sensor_type;location;lat;lon;timestamp;pressure;altitude;pressure_sealevel;temperature;humidity
62895;BME280;49204;44.916;37.998;2023-04-01T00:01:18;101297.16;;;3.72;63.17
62895;BME280;49204;44.916;37.998;2023-04-01T00:03:47;101307.59;;;3.69;63.13
62895;BME280;49204;44.916;37.998;2023-04-01T00:06:17;101306.70;;;3.67;63.14
62895;BME280;49204;44.916;37.998;2023-04-01T00:08:46;101301.08;;;3.66;63.27
62895;BME280;49204;44.916;37.998;2023-04-01T00:11:16;101293.69;;;3.68;63.21
62895;BME280;49204;44.916;37.998;2023-04-01T00:13:45;101289.78;;;3.70;63.17
62895;BME280;49204;44.916;37.998;2023-04-01T00:16:14;101288.06;;;3.69;63.42
62895;BME280;49204;44.916;37.998;2023-04-01T00:18:43;101281.97;;;3.73;64.25
62895;BME280;49204;44.916;37.998;2023-04-01T00:21:11;101280.23;;;3.78;63.75
62895;BME280;49204;44.916;37.998;2023-04-01T00:23:40;101275.85;;;3.83;63.71
62895;BME280;49204;44.916;37.998;2023-04-01T00:26:09;101270.20;;;3.87;63.78
62895;BME280;49204;44.916;37.998;2023-04-01T00:28:40;101272.80;;;3.89;63.63
62895;BME280;49204;44.916;37.998;2023-04-01T00:31:09;101266.30;;;3.89;63.60
62895;BME280;49204;44.916;37.998;2023-04-01T00:33:39;101274.14;;;3.85;63.46
62895;BME280;49204;44.916;37.998;2023-04-01T00:36:10;101271.53;;;3.79;63.40
62895;BME280;49204;44.916;37.998;2023-04-01T00:38:39;101269.81;;;3.77;63.48
62895;BME280;49204;44.916;37.998;2023-04-01T00:41:11;101269.81;;;3.77;63.49
62895;BME280;49204;44.916;37.998;2023-04-01T00:43:47;101268.51;;;3.78;63.41
62895;BME280;49204;44.916;37.998;2023-04-01T00:46:16;101270.23;;;3.79;63.78
62895;BME280;49204;44.916;37.998;2023-04-01T00:48:50;101270.23;;;3.79;63.74
62895;BME280;49204;44.916;37.998;2023-04-01T00:51:22;101270.23;;;3.82;63.76
62895;BME280;49204;44.916;37.998;2023-04-01T00:53:53;101268.92;;;3.82;63.61
62895;BME280;49204;44.916;37.998;2023-04-01T00:56:32;101266.77;;;3.79;63.50
62895;BME280;49204;44.916;37.998;2023-04-01T00:59:04;101264.58;;;3.81;63.69
62895;BME280;49204;44.916;37.998;2023-04-01T01:01:32;101271.95;;;3.83;63.55
62895;BME280;49204;44.916;37.998;2023-04-01T01:04:03;101267.18;;;3.83;63.57
62895;BME280;49204;44.916;37.998;2023-04-01T01:09:32;101255.45;;;3.84;63.70
62895;BME280;49204;44.916;37.998;2023-04-01T01:12:22;101261.11;;;3.84;63.59
62895;BME280;49204;44.916;37.998;2023-04-01T01:18:14;101262.83;;;3.83;63.44
62895;BME280;49204;44.916;37.998;2023-04-01T01:37:35;101257.66;;;3.66;63.43
62895;BME280;49204;44.916;37.998;2023-04-01T01:40:09;101251.16;;;3.65;63.29
62895;BME280;49204;44.916;37.998;2023-04-01T01:42:42;101255.95;;;3.64;63.27
62895;BME280;49204;44.916;37.998;2023-04-01T01:45:13;101256.39;;;3.63;63.28
62895;BME280;49204;44.916;37.998;2023-04-01T01:47:46;101255.95;;;3.64;63.22
62895;BME280;49204;44.916;37.998;2023-04-01T01:50:17;101261.16;;;3.62;63.23
62895;BME280;49204;44.916;37.998;2023-04-01T01:52:45;101256.83;;;3.60;63.24
62895;BME280;49204;44.916;37.998;2023-04-01T01:55:26;101255.50;;;3.63;63.31
62895;BME280;49204;44.916;37.998;2023-04-01T01:57:59;101260.27;;;3.65;63.37
62895;BME280;49204;44.916;37.998;2023-04-01T02:00:28;101260.27;;;3.68;63.27
62895;BME280;49204;44.916;37.998;2023-04-01T02:02:59;101257.67;;;3.68;63.28
62895;BME280;49204;44.916;37.998;2023-04-01T02:05:29;101257.22;;;3.68;63.16
62895;BME280;49204;44.916;37.998;2023-04-01T02:08:05;101253.77;;;3.68;63.15
62895;BME280;49204;44.916;37.998;2023-04-01T02:10:35;101253.31;;;3.70;63.37
62895;BME280;49204;44.916;37.998;2023-04-01T02:13:09;101255.06;;;3.71;63.28
62895;BME280;49204;44.916;37.998;2023-04-01T02:15:40;101256.78;;;3.71;63.12
62895;BME280;49204;44.916;37.998;2023-04-01T02:18:08;101249.86;;;3.70;63.18
62895;BME280;49204;44.916;37.998;2023-04-01T02:20:38;101258.97;;;3.71;63.46
62895;BME280;49204;44.916;37.998;2023-04-01T02:23:09;101255.92;;;3.73;63.52
62895;BME280;49204;44.916;37.998;2023-04-01T02:25:39;101257.23;;;3.75;63.55
62895;BME280;49204;44.916;37.998;2023-04-01T02:28:12;101261.55;;;3.77;63.56
62895;BME280;49204;44.916;37.998;2023-04-01T02:30:44;101255.92;;;3.75;63.49
62895;BME280;49204;44.916;37.998;2023-04-01T02:33:13;101253.30;;;3.78;63.65
62895;BME280;49204;44.916;37.998;2023-04-01T02:35:42;101246.37;;;3.77;63.64
62895;BME280;49204;44.916;37.998;2023-04-01T02:38:11;101254.63;;;3.76;63.57
62895;BME280;49204;44.916;37.998;2023-04-01T02:40:52;101256.38;;;3.73;63.70
62895;BME280;49204;44.916;37.998;2023-04-01T02:43:21;101258.08;;;3.72;63.80
62895;BME280;49204;44.916;37.998;2023-04-01T02:45:49;101263.73;;;3.73;63.87
62895;BME280;49204;44.916;37.998;2023-04-01T02:48:18;101256.34;;;3.77;64.03
62895;BME280;49204;44.916;37.998;2023-04-01T02:50:48;101251.58;;;3.75;63.95
62895;BME280;49204;44.916;37.998;2023-04-01T02:53:17;101246.81;;;3.73;64.04
62895;BME280;49204;44.916;37.998;2023-04-01T02:55:46;101252.02;;;3.72;64.15
62895;BME280;49204;44.916;37.998;2023-04-01T02:58:16;101247.22;;;3.74;64.39
62895;BME280;49204;44.916;37.998;2023-04-01T03:00:45;101254.59;;;3.79;64.57
62895;BME280;49204;44.916;37.998;2023-04-01T03:03:14;101256.77;;;3.84;64.71
62895;BME280;49204;44.916;37.998;2023-04-01T03:05:42;101265.44;;;3.91;64.87
62895;BME280;49204;44.916;37.998;2023-04-01T03:08:11;101269.76;;;3.95;65.25
62895;BME280;49204;44.916;37.998;2023-04-01T03:10:40;101261.05;;;3.96;65.10
62895;BME280;49204;44.916;37.998;2023-04-01T03:13:08;101255.84;;;4.01;65.02
62895;BME280;49204;44.916;37.998;2023-04-01T03:15:37;101251.48;;;4.06;65.05
62895;BME280;49204;44.916;37.998;2023-04-01T03:18:06;101249.73;;;4.10;65.11
62895;BME280;49204;44.916;37.998;2023-04-01T03:20:34;101255.32;;;4.17;65.11
62895;BME280;49204;44.916;37.998;2023-04-01T03:23:03;101249.66;;;4.20;65.07
62895;BME280;49204;44.916;37.998;2023-04-01T03:25:32;101247.49;;;4.26;65.13
62895;BME280;49204;44.916;37.998;2023-04-01T03:28:02;101246.19;;;4.26;64.98
62895;BME280;49204;44.916;37.998;2023-04-01T03:30:31;101240.94;;;4.31;65.00
62895;BME280;49204;44.916;37.998;2023-04-01T03:33:00;101240.04;;;4.35;64.95
62895;BME280;49204;44.916;37.998;2023-04-01T03:35:31;101239.58;;;4.40;65.06
62895;BME280;49204;44.916;37.998;2023-04-01T03:38:00;101246.89;;;4.56;64.97
62895;BME280;49204;44.916;37.998;2023-04-01T03:40:29;101240.59;;;4.83;64.84
62895;BME280;49204;44.916;37.998;2023-04-01T03:42:58;101247.79;;;5.13;64.59
62895;BME280;49204;44.916;37.998;2023-04-01T03:45:27;101244.94;;;5.39;64.14
62895;BME280;49204;44.916;37.998;2023-04-01T03:47:56;101254.64;;;5.70;63.34
62895;BME280;49204;44.916;37.998;2023-04-01T03:50:24;101248.67;;;6.00;62.90
62895;BME280;49204;44.916;37.998;2023-04-01T03:52:53;101255.36;;;6.23;62.22
62895;BME280;49204;44.916;37.998;2023-04-01T03:55:22;101252.94;;;6.42;61.90
62895;BME280;49204;44.916;37.998;2023-04-01T03:57:50;101255.65;;;6.66;61.78
62895;BME280;49204;44.916;37.998;2023-04-01T04:00:20;101249.17;;;6.90;61.32
62895;BME280;49204;44.916;37.998;2023-04-01T04:02:50;101251.82;;;7.16;60.36
62895;BME280;49204;44.916;37.998;2023-04-01T04:05:20;101242.66;;;7.42;60.57
62895;BME280;49204;44.916;37.998;2023-04-01T04:07:49;101241.36;;;7.64;59.87
62895;BME280;49204;44.916;37.998;2023-04-01T04:10:18;101249.16;;;7.90;59.60
62895;BME280;49204;44.916;37.998;2023-04-01T04:12:48;101246.38;;;8.19;59.43
62895;BME280;49204;44.916;37.998;2023-04-01T04:15:17;101250.21;;;8.46;58.89
62895;BME280;49204;44.916;37.998;2023-04-01T04:17:47;101252.39;;;8.66;58.38
62895;BME280;49204;44.916;37.998;2023-04-01T04:20:16;101257.52;;;8.90;57.66
62895;BME280;49204;44.916;37.998;2023-04-01T04:22:45;101252.97;;;8.98;56.50
62895;BME280;49204;44.916;37.998;2023-04-01T04:25:13;101251.72;;;9.13;56.27
62895;BME280;49204;44.916;37.998;2023-04-01T04:27:42;101257.72;;;9.35;56.31
62895;BME280;49204;44.916;37.998;2023-04-01T04:30:13;101248.05;;;9.53;56.10
62895;BME280;49204;44.916;37.998;2023-04-01T04:32:41;101251.50;;;9.72;54.92
62895;BME280;49204;44.916;37.998;2023-04-01T04:35:11;101247.42;;;9.93;55.01
62895;BME280;49204;44.916;37.998;2023-04-01T04:37:40;101246.44;;;10.27;54.61
62895;BME280;49204;44.916;37.998;2023-04-01T04:40:09;101246.95;;;10.54;54.59
62895;BME280;49204;44.916;37.998;2023-04-01T04:42:37;101252.62;;;10.70;52.48
62895;BME280;49204;44.916;37.998;2023-04-01T04:45:09;101246.38;;;10.73;52.14
62895;BME280;49204;44.916;37.998;2023-04-01T04:47:40;101245.02;;;10.74;50.67
62895;BME280;49204;44.916;37.998;2023-04-01T04:50:10;101234.70;;;10.95;50.75
62895;BME280;49204;44.916;37.998;2023-04-01T04:52:39;101233.89;;;11.06;50.06
62895;BME280;49204;44.916;37.998;2023-04-01T04:55:08;101237.13;;;11.28;50.40
62895;BME280;49204;44.916;37.998;2023-04-01T04:57:37;101234.95;;;11.66;49.74
62895;BME280;49204;44.916;37.998;2023-04-01T05:00:07;101226.85;;;11.70;48.28
62895;BME280;49204;44.916;37.998;2023-04-01T05:02:54;101231.66;;;11.71;46.79
62895;BME280;49204;44.916;37.998;2023-04-01T05:05:22;101232.77;;;11.90;46.79
62895;BME280;49204;44.916;37.998;2023-04-01T05:07:51;101223.29;;;11.96;46.19
62895;BME280;49204;44.916;37.998;2023-04-01T05:10:20;101237.59;;;12.14;45.07
62895;BME280;49204;44.916;37.998;2023-04-01T05:12:49;101222.79;;;12.10;45.14
62895;BME280;49204;44.916;37.998;2023-04-01T05:15:20;101228.11;;;12.32;45.08
62895;BME280;49204;44.916;37.998;2023-04-01T05:17:48;101230.94;;;12.62;44.74
62895;BME280;49204;44.916;37.998;2023-04-01T05:20:17;101228.88;;;12.90;43.96
62895;BME280;49204;44.916;37.998;2023-04-01T05:22:46;101232.09;;;13.09;43.72
62895;BME280;49204;44.916;37.998;2023-04-01T05:25:15;101230.05;;;13.26;43.97
62895;BME280;49204;44.916;37.998;2023-04-01T05:27:44;101238.84;;;13.48;43.01
62895;BME280;49204;44.916;37.998;2023-04-01T05:30:13;101233.27;;;13.44;42.62
62895;BME280;49204;44.916;37.998;2023-04-01T05:32:43;101223.23;;;13.53;42.01
62895;BME280;49204;44.916;37.998;2023-04-01T05:35:12;101231.93;;;13.75;40.96
62895;BME280;49204;44.916;37.998;2023-04-01T05:37:41;101229.88;;;13.82;41.67
62895;BME280;49204;44.916;37.998;2023-04-01T05:40:10;101229.84;;;14.21;42.31
62895;BME280;49204;44.916;37.998;2023-04-01T05:42:38;101232.17;;;14.38;40.97
62895;BME280;49204;44.916;37.998;2023-04-01T05:45:08;101222.33;;;14.50;40.57
62895;BME280;49204;44.916;37.998;2023-04-01T05:47:50;101229.16;;;14.92;39.98
62895;BME280;49204;44.916;37.998;2023-04-01T05:50:19;101216.68;;;15.12;39.87
62895;BME280;49204;44.916;37.998;2023-04-01T05:52:48;101214.59;;;15.18;38.64
62895;BME280;49204;44.916;37.998;2023-04-01T05:55:17;101217.09;;;15.13;38.33
62895;BME280;49204;44.916;37.998;2023-04-01T05:57:47;101218.33;;;15.05;37.84
62895;BME280;49204;44.916;37.998;2023-04-01T06:00:17;101205.75;;;15.18;37.84
62895;BME280;49204;44.916;37.998;2023-04-01T06:02:47;101216.91;;;15.16;37.86
62895;BME280;49204;44.916;37.998;2023-04-01T06:05:24;101217.63;;;15.46;38.20
62895;BME280;49204;44.916;37.998;2023-04-01T06:08:08;101220.63;;;15.81;38.73
62895;BME280;49204;44.916;37.998;2023-04-01T06:13:13;101217.91;;;15.99;37.95
62895;BME280;49204;44.916;37.998;2023-04-01T06:18:39;101223.60;;;16.25;36.69
62895;BME280;49204;44.916;37.998;2023-04-01T06:26:47;101234.23;;;16.72;36.24
62895;BME280;49204;44.916;37.998;2023-04-01T06:29:25;101226.94;;;16.53;35.39
62895;BME280;49204;44.916;37.998;2023-04-01T06:32:01;101216.95;;;16.25;35.41
62895;BME280;49204;44.916;37.998;2023-04-01T06:37:56;101216.50;;;16.41;35.19
62895;BME280;49204;44.916;37.998;2023-04-01T06:45:59;101206.63;;;16.43;34.75
62895;BME280;49204;44.916;37.998;2023-04-01T06:51:50;101197.97;;;16.71;35.10
62895;BME280;49204;44.916;37.998;2023-04-01T06:54:48;101196.30;;;17.38;34.88
62895;BME280;49204;44.916;37.998;2023-04-01T06:57:29;101201.55;;;17.68;33.84
62895;BME280;49204;44.916;37.998;2023-04-01T06:59:55;101191.56;;;17.50;32.87
62895;BME280;49204;44.916;37.998;2023-04-01T07:06:09;101190.30;;;17.34;32.81
62895;BME280;49204;44.916;37.998;2023-04-01T07:08:40;101203.94;;;17.66;32.45
62895;BME280;49204;44.916;37.998;2023-04-01T07:11:22;101207.85;;;17.89;32.25
62895;BME280;49204;44.916;37.998;2023-04-01T07:16:42;101190.61;;;18.16;31.64
62895;BME280;49204;44.916;37.998;2023-04-01T07:19:12;101200.75;;;18.38;30.90
62895;BME280;49204;44.916;37.998;2023-04-01T07:21:52;101194.56;;;18.72;31.37
62895;BME280;49204;44.916;37.998;2023-04-01T07:24:29;101159.24;;;19.21;30.62
62895;BME280;49204;44.916;37.998;2023-04-01T07:27:01;101201.08;;;19.08;30.28
62895;BME280;49204;44.916;37.998;2023-04-01T07:29:32;101197.02;;;19.02;29.72
62895;BME280;49204;44.916;37.998;2023-04-01T07:37:57;101196.76;;;19.00;29.75
62895;BME280;49204;44.916;37.998;2023-04-01T07:43:22;101187.86;;;19.19;29.89
62895;BME280;49204;44.916;37.998;2023-04-01T07:46:23;101199.45;;;18.93;29.25
62895;BME280;49204;44.916;37.998;2023-04-01T07:51:34;101198.10;;;18.65;29.78
62895;BME280;49204;44.916;37.998;2023-04-01T07:54:14;101195.51;;;18.71;30.07
62895;BME280;49204;44.916;37.998;2023-04-01T07:56:57;101198.97;;;18.93;29.77
62895;BME280;49204;44.916;37.998;2023-04-01T07:59:48;101197.08;;;19.08;29.99
62895;BME280;49204;44.916;37.998;2023-04-01T08:05:07;101197.23;;;19.45;30.11
62895;BME280;49204;44.916;37.998;2023-04-01T08:14:15;101208.95;;;19.62;29.29
62895;BME280;49204;44.916;37.998;2023-04-01T08:25:15;101201.68;;;19.64;29.62
62895;BME280;49204;44.916;37.998;2023-04-01T08:27:47;101196.50;;;19.94;29.27
62895;BME280;49204;44.916;37.998;2023-04-01T08:30:26;101194.38;;;20.18;28.75
62895;BME280;49204;44.916;37.998;2023-04-01T08:33:05;101201.27;;;20.15;28.75
62895;BME280;49204;44.916;37.998;2023-04-01T08:35:48;101202.68;;;19.56;28.52
62895;BME280;49204;44.916;37.998;2023-04-01T08:38:19;101205.02;;;19.22;29.05
62895;BME280;49204;44.916;37.998;2023-04-01T08:41:00;101189.74;;;19.24;29.42
62895;BME280;49204;44.916;37.998;2023-04-01T08:52:21;101213.52;;;19.60;29.16
62895;BME280;49204;44.916;37.998;2023-04-01T09:00:28;101204.61;;;19.54;29.58
62895;BME280;49204;44.916;37.998;2023-04-01T09:03:22;101192.68;;;19.40;29.63
62895;BME280;49204;44.916;37.998;2023-04-01T09:06:06;101194.89;;;19.40;29.70
62895;BME280;49204;44.916;37.998;2023-04-01T09:08:31;101192.79;;;19.64;29.70
62895;BME280;49204;44.916;37.998;2023-04-01T09:22:46;101181.36;;;19.49;29.62
62895;BME280;49204;44.916;37.998;2023-04-01T09:25:34;101171.22;;;19.54;29.68
62895;BME280;49204;44.916;37.998;2023-04-01T09:36:36;101194.57;;;19.12;29.60
62895;BME280;49204;44.916;37.998;2023-04-01T09:45:07;101186.91;;;18.46;30.03
62895;BME280;49204;44.916;37.998;2023-04-01T09:47:51;101189.84;;;18.63;29.99
62895;BME280;49204;44.916;37.998;2023-04-01T09:50:20;101188.45;;;18.70;29.78
62895;BME280;49204;44.916;37.998;2023-04-01T09:55:50;101176.05;;;18.07;30.39
62895;BME280;49204;44.916;37.998;2023-04-01T10:07:45;101168.85;;;18.02;29.60
62895;BME280;49204;44.916;37.998;2023-04-01T10:09:57;101162.19;;;18.09;29.66
62895;BME280;49204;44.916;37.998;2023-04-01T10:15:22;101148.38;;;18.44;29.45
62895;BME280;49204;44.916;37.998;2023-04-01T10:21:02;101146.51;;;18.32;29.85
62895;BME280;49204;44.916;37.998;2023-04-01T10:29:17;101142.95;;;17.83;29.14
62895;BME280;49204;44.916;37.998;2023-04-01T10:46:09;101142.22;;;17.38;30.21
62895;BME280;49204;44.916;37.998;2023-04-01T10:51:53;101141.98;;;17.26;30.09
62895;BME280;49204;44.916;37.998;2023-04-01T10:54:32;101141.21;;;17.17;30.55
62895;BME280;49204;44.916;37.998;2023-04-01T11:00:47;101157.85;;;16.60;29.95
62895;BME280;49204;44.916;37.998;2023-04-01T11:03:43;101146.83;;;16.43;30.87
62895;BME280;49204;44.916;37.998;2023-04-01T11:28:50;101120.84;;;15.44;31.24
62895;BME280;49204;44.916;37.998;2023-04-01T11:31:45;101131.91;;;15.01;31.74
62895;BME280;49204;44.916;37.998;2023-04-01T11:43:13;101124.67;;;13.58;33.16
62895;BME280;49204;44.916;37.998;2023-04-01T11:45:53;101140.72;;;13.34;34.13
62895;BME280;49204;44.916;37.998;2023-04-01T11:51:22;101125.94;;;13.49;33.93
62895;BME280;49204;44.916;37.998;2023-04-01T12:00:14;101139.57;;;13.19;33.84
62895;BME280;49204;44.916;37.998;2023-04-01T12:03:21;101126.00;;;13.17;33.82
62895;BME280;49204;44.916;37.998;2023-04-01T12:09:30;101125.87;;;13.09;33.87
62895;BME280;49204;44.916;37.998;2023-04-01T12:12:22;101113.46;;;13.01;34.22
62895;BME280;49204;44.916;37.998;2023-04-01T12:15:13;101100.89;;;12.75;33.67
62895;BME280;49204;44.916;37.998;2023-04-01T12:17:39;101111.14;;;12.73;33.69
62895;BME280;49204;44.916;37.998;2023-04-01T12:23:41;101112.78;;;12.75;34.08
62895;BME280;49204;44.916;37.998;2023-04-01T12:45:34;101096.47;;;12.66;31.40
62895;BME280;49204;44.916;37.998;2023-04-01T12:56:09;101100.02;;;12.65;31.44
62895;BME280;49204;44.916;37.998;2023-04-01T12:59:07;101084.96;;;12.67;31.11
62895;BME280;49204;44.916;37.998;2023-04-01T13:04:37;101092.69;;;12.61;30.75
62895;BME280;49204;44.916;37.998;2023-04-01T13:07:36;101087.55;;;12.58;30.62
62895;BME280;49204;44.916;37.998;2023-04-01T13:15:54;101102.46;;;12.49;30.43
62895;BME280;49204;44.916;37.998;2023-04-01T13:18:18;101104.16;;;12.50;30.40
62895;BME280;49204;44.916;37.998;2023-04-01T13:21:23;101107.80;;;12.47;30.56
62895;BME280;49204;44.916;37.998;2023-04-01T13:26:37;101101.10;;;12.28;30.63
62895;BME280;49204;44.916;37.998;2023-04-01T13:29:16;101087.48;;;12.27;30.91
62895;BME280;49204;44.916;37.998;2023-04-01T13:31:53;101095.31;;;12.19;30.60
62895;BME280;49204;44.916;37.998;2023-04-01T13:42:38;101087.11;;;11.92;30.79
62895;BME280;49204;44.916;37.998;2023-04-01T13:45:20;101097.19;;;11.81;30.86
62895;BME280;49204;44.916;37.998;2023-04-01T13:50:56;101088.03;;;11.68;31.69
62895;BME280;49204;44.916;37.998;2023-04-01T13:56:33;101078.78;;;11.56;32.13
62895;BME280;49204;44.916;37.998;2023-04-01T14:01:48;101075.25;;;11.57;32.72
62895;BME280;49204;44.916;37.998;2023-04-01T14:20:48;101079.48;;;11.26;33.78
62895;BME280;49204;44.916;37.998;2023-04-01T14:23:29;101072.94;;;11.24;33.62
62895;BME280;49204;44.916;37.998;2023-04-01T14:29:01;101072.42;;;11.26;34.04
62895;BME280;49204;44.916;37.998;2023-04-01T14:40:38;101074.45;;;11.06;34.55
62895;BME280;49204;44.916;37.998;2023-04-01T14:46:14;101075.06;;;11.01;34.61
62895;BME280;49204;44.916;37.998;2023-04-01T14:48:59;101060.05;;;10.91;34.84
62895;BME280;49204;44.916;37.998;2023-04-01T14:51:38;101063.81;;;10.84;35.04
62895;BME280;49204;44.916;37.998;2023-04-01T14:54:30;101059.52;;;10.81;35.11
62895;BME280;49204;44.916;37.998;2023-04-01T14:57:11;101068.84;;;10.78;35.14
62895;BME280;49204;44.916;37.998;2023-04-01T14:59:49;101081.77;;;10.73;35.33
62895;BME280;49204;44.916;37.998;2023-04-01T15:05:52;101067.05;;;10.54;35.88
62895;BME280;49204;44.916;37.998;2023-04-01T15:08:29;101068.59;;;10.48;36.15
62895;BME280;49204;44.916;37.998;2023-04-01T15:14:12;101069.07;;;10.32;36.85
62895;BME280;49204;44.916;37.998;2023-04-01T15:16:45;101061.86;;;10.24;37.23
62895;BME280;49204;44.916;37.998;2023-04-01T15:19:23;101063.98;;;10.13;37.37
62895;BME280;49204;44.916;37.998;2023-04-01T15:22:08;101062.84;;;10.07;37.78
62895;BME280;49204;44.916;37.998;2023-04-01T15:24:28;101055.75;;;9.95;37.92
62895;BME280;49204;44.916;37.998;2023-04-01T15:27:27;101057.61;;;9.92;38.01
62895;BME280;49204;44.916;37.998;2023-04-01T15:35:46;101052.06;;;9.73;38.71
62895;BME280;49204;44.916;37.998;2023-04-01T15:38:30;101057.18;;;9.62;39.04
62895;BME280;49204;44.916;37.998;2023-04-01T15:41:11;101054.78;;;9.55;39.27
62895;BME280;49204;44.916;37.998;2023-04-01T15:43:45;101054.13;;;9.48;39.56
62895;BME280;49204;44.916;37.998;2023-04-01T15:46:46;101050.30;;;9.43;39.54
62895;BME280;49204;44.916;37.998;2023-04-01T15:49:28;101057.91;;;9.38;39.83
62895;BME280;49204;44.916;37.998;2023-04-01T15:58:11;101046.80;;;9.13;40.64
62895;BME280;49204;44.916;37.998;2023-04-01T16:00:48;101044.75;;;9.08;40.87
62895;BME280;49204;44.916;37.998;2023-04-01T16:03:28;101042.38;;;8.99;41.17
62895;BME280;49204;44.916;37.998;2023-04-01T16:13:58;101042.88;;;8.80;42.27
62895;BME280;49204;44.916;37.998;2023-04-01T16:19:17;101043.59;;;8.71;42.46
62895;BME280;49204;44.916;37.998;2023-04-01T16:21:49;101045.00;;;8.66;42.91
62895;BME280;49204;44.916;37.998;2023-04-01T16:27:33;101044.00;;;8.54;43.53
62895;BME280;49204;44.916;37.998;2023-04-01T16:30:03;101033.60;;;8.50;43.56
62895;BME280;49204;44.916;37.998;2023-04-01T16:37:54;101031.61;;;8.42;43.58
62895;BME280;49204;44.916;37.998;2023-04-01T16:40:47;101032.59;;;8.37;43.39
62895;BME280;49204;44.916;37.998;2023-04-01T16:43:25;101031.80;;;8.33;43.86
62895;BME280;49204;44.916;37.998;2023-04-01T16:46:45;101031.97;;;8.27;44.04
62895;BME280;49204;44.916;37.998;2023-04-01T16:51:25;101033.67;;;8.28;43.61
62895;BME280;49204;44.916;37.998;2023-04-01T16:54:02;101031.02;;;8.29;43.95
62895;BME280;49204;44.916;37.998;2023-04-01T16:56:28;101027.55;;;8.29;43.98
62895;BME280;49204;44.916;37.998;2023-04-01T16:59:20;101030.09;;;8.32;43.92
62895;BME280;49204;44.916;37.998;2023-04-01T17:07:49;101035.97;;;8.43;43.98
62895;BME280;49204;44.916;37.998;2023-04-01T17:10:33;101035.54;;;8.42;44.07
62895;BME280;49204;44.916;37.998;2023-04-01T17:44:03;101038.20;;;8.23;44.10
62895;BME280;49204;44.916;37.998;2023-04-01T17:50:14;101034.33;;;8.20;44.52
62895;BME280;49204;44.916;37.998;2023-04-01T17:57:53;101033.90;;;8.19;44.60
62895;BME280;49204;44.916;37.998;2023-04-01T18:00:33;101033.02;;;8.20;44.27
62895;BME280;49204;44.916;37.998;2023-04-01T18:03:09;101025.97;;;8.22;43.91
62895;BME280;49204;44.916;37.998;2023-04-01T18:19:57;101022.85;;;8.24;43.07
62895;BME280;49204;44.916;37.998;2023-04-01T18:22:36;101023.70;;;8.24;43.01
62895;BME280;49204;44.916;37.998;2023-04-01T18:27:50;101021.70;;;8.18;43.34
62895;BME280;49204;44.916;37.998;2023-04-01T18:30:30;101015.67;;;8.14;43.43
62895;BME280;49204;44.916;37.998;2023-04-01T18:36:19;101019.30;;;8.08;43.62
62895;BME280;49204;44.916;37.998;2023-04-01T18:38:57;101018.55;;;8.03;43.84
62895;BME280;49204;44.916;37.998;2023-04-01T18:52:44;101019.22;;;7.74;44.86
62895;BME280;49204;44.916;37.998;2023-04-01T18:58:21;101010.28;;;7.63;45.00
62895;BME280;49204;44.916;37.998;2023-04-01T19:06:30;101003.88;;;7.57;44.53
62895;BME280;49204;44.916;37.998;2023-04-01T19:09:09;101011.77;;;7.56;44.41
62895;BME280;49204;44.916;37.998;2023-04-01T19:14:40;101005.68;;;7.55;44.17
62895;BME280;49204;44.916;37.998;2023-04-01T19:20:01;101007.48;;;7.53;43.94
62895;BME280;49204;44.916;37.998;2023-04-01T19:22:40;101004.45;;;7.50;43.80
62895;BME280;49204;44.916;37.998;2023-04-01T19:29:13;101003.77;;;7.42;43.69
62895;BME280;49204;44.916;37.998;2023-04-01T19:36:55;101009.09;;;7.18;43.87
62895;BME280;49204;44.916;37.998;2023-04-01T19:45:26;101012.23;;;6.92;43.88
62895;BME280;49204;44.916;37.998;2023-04-01T19:53:53;100995.80;;;6.84;43.56
62895;BME280;49204;44.916;37.998;2023-04-01T19:56:23;100998.05;;;6.81;43.65
62895;BME280;49204;44.916;37.998;2023-04-01T19:59:17;100995.88;;;6.81;43.69
62895;BME280;49204;44.916;37.998;2023-04-01T20:07:37;100998.52;;;6.79;43.63
62895;BME280;49204;44.916;37.998;2023-04-01T20:10:09;100999.41;;;6.78;43.65
62895;BME280;49204;44.916;37.998;2023-04-01T20:15:55;100992.96;;;6.73;43.83
62895;BME280;49204;44.916;37.998;2023-04-01T20:18:25;100999.03;;;6.75;43.90
62895;BME280;49204;44.916;37.998;2023-04-01T20:23:45;100999.53;;;6.72;43.96
62895;BME280;49204;44.916;37.998;2023-04-01T20:26:14;101002.13;;;6.73;43.99
62895;BME280;49204;44.916;37.998;2023-04-01T20:31:43;100998.59;;;6.74;43.93
62895;BME280;49204;44.916;37.998;2023-04-01T20:48:24;100983.27;;;6.54;44.50
62895;BME280;49204;44.916;37.998;2023-04-01T20:51:51;100982.86;;;6.53;44.56
62895;BME280;49204;44.916;37.998;2023-04-01T20:53:42;100973.88;;;6.44;44.73
62895;BME280;49204;44.916;37.998;2023-04-01T20:56:31;100968.41;;;6.32;45.26
62895;BME280;49204;44.916;37.998;2023-04-01T20:59:21;100976.53;;;6.17;45.98
62895;BME280;49204;44.916;37.998;2023-04-01T21:10:29;100957.66;;;5.69;47.52
62895;BME280;49204;44.916;37.998;2023-04-01T21:18:24;100945.05;;;5.69;47.98
62895;BME280;49204;44.916;37.998;2023-04-01T21:23:48;100932.97;;;5.89;47.01
62895;BME280;49204;44.916;37.998;2023-04-01T21:37:18;100928.00;;;6.01;45.56
62895;BME280;49204;44.916;37.998;2023-04-01T21:39:49;100940.69;;;5.98;45.50
62895;BME280;49204;44.916;37.998;2023-04-01T21:42:41;100934.20;;;5.92;45.52
62895;BME280;49204;44.916;37.998;2023-04-01T21:45:21;100938.27;;;5.83;45.64
62895;BME280;49204;44.916;37.998;2023-04-01T22:07:17;100921.92;;;5.11;46.83
62895;BME280;49204;44.916;37.998;2023-04-01T22:17:56;100920.98;;;4.83;46.76
62895;BME280;49204;44.916;37.998;2023-04-01T22:20:40;100921.98;;;4.74;46.97